Cushendall, United Kingdom
Current Conditions -  °F | °C
As of 5:50 AM on Sunday 23 Nov 2014 (Local Time) from EGAA Reporting Station
Clear Clear  
Wind Chill: 32°   Ceiling: Unl
Heat Index: 36°   Visibility: 6mi
Dew Point: 36°   Wind: 5mph
Humidity: 100%   Direction: 210°SSW
Pressure: 30.03"   Gusts: NA
Location:  55.08°N, 6.06°W
Report Text: EGAA 230550Z 21004KT 180V240 CAVOK 02/02 Q1017
Loading
Personal Weather Stations






























Interactive Weather Map New forecast layout! Learn more

10-Day Weather Forecast

Advertisements
Track Severe Weather on mobile